Time;durP1;ratioP1;P1;durP2;ratioP2;P2;SDS_P1;SDS_P2;PMS_P1;PMS_P2;Temp;Humidity;BMP_temperature;BMP_pressure;BME280_temperature;BME280_humidity;BME280_pressure;Samples;Min_cycle;Max_cycle;Signal;HPM_P1;HPM_P2
2021/12/02 00:00:22;;;;;;;6.10;1.00;;;3.80;99.90;;;;;;5090692;28;20078;-57
2021/12/02 00:02:48;;;;;;;7.07;0.88;;;3.80;99.90;;;;;;5082132;28;20599;-57
2021/12/02 00:05:14;;;;;;;7.47;0.90;;;3.70;99.90;;;;;;5089061;28;20043;-57
2021/12/02 00:07:40;;;;;;;9.82;1.30;;;3.70;99.90;;;;;;5069469;28;20066;-57
2021/12/02 00:10:06;;;;;;;5.05;0.73;;;3.60;99.90;;;;;;5090649;28;20071;-57
2021/12/02 00:12:32;;;;;;;4.32;0.77;;;3.60;99.90;;;;;;5084484;28;20032;-57
2021/12/02 00:15:00;;;;;;;6.53;1.00;;;3.50;99.90;;;;;;5106213;28;20086;-57
2021/12/02 00:17:29;;;;;;;8.77;1.10;;;3.50;99.90;;;;;;5083765;28;20040;-56
2021/12/02 00:23:12;;;;;;;4.50;1.00;;;3.50;99.90;;;;;;5088207;28;20093;-57
2021/12/02 00:25:38;;;;;;;6.47;1.10;;;3.50;99.90;;;;;;5089748;28;20079;-57
2021/12/02 00:28:05;;;;;;;10.15;1.15;;;3.50;99.90;;;;;;5080464;28;20036;-57
2021/12/02 00:30:32;;;;;;;5.30;0.88;;;3.50;99.90;;;;;;5088370;28;20032;-57
2021/12/02 00:33:01;;;;;;;7.93;1.00;;;3.50;99.90;;;;;;5085925;28;20051;-57
2021/12/02 00:35:27;;;;;;;8.20;0.90;;;3.50;99.90;;;;;;5089928;28;20028;-57
2021/12/02 00:37:54;;;;;;;11.63;1.25;;;3.50;99.90;;;;;;5087828;28;20040;-57
2021/12/02 00:40:20;;;;;;;5.47;1.00;;;3.50;99.90;;;;;;5092589;28;20052;-60
2021/12/02 00:42:47;;;;;;;6.95;1.17;;;3.50;99.90;;;;;;5090137;28;20143;-57
2021/12/02 00:45:13;;;;;;;7.72;0.90;;;3.50;99.90;;;;;;5093919;28;20122;-57
2021/12/02 00:47:39;;;;;;;3.95;0.88;;;3.50;99.90;;;;;;5086324;28;20103;-58
2021/12/02 00:50:06;;;;;;;5.00;1.00;;;3.50;99.90;;;;;;5094017;28;20626;-58
2021/12/02 00:52:32;;;;;;;12.82;1.55;;;3.50;99.90;;;;;;5091235;28;20066;-58
2021/12/02 00:54:58;;;;;;;8.20;0.98;;;3.50;99.90;;;;;;5093723;28;20511;-57
2021/12/02 00:57:27;;;;;;;11.77;1.40;;;3.40;99.90;;;;;;5090615;28;20044;-58
2021/12/02 00:59:55;;;;;;;8.90;1.20;;;3.50;99.90;;;;;;5091742;28;20024;-58
2021/12/02 01:02:22;;;;;;;6.18;0.80;;;3.40;99.90;;;;;;5091079;28;20104;-58
2021/12/02 01:04:48;;;;;;;8.18;1.70;;;3.40;99.90;;;;;;5091625;28;20153;-58
2021/12/02 01:07:15;;;;;;;7.90;1.00;;;3.40;99.90;;;;;;5058300;28;20095;-58
2021/12/02 01:09:41;;;;;;;13.00;1.23;;;3.40;99.90;;;;;;5091809;28;20086;-57
2021/12/02 01:12:07;;;;;;;9.20;1.10;;;3.50;99.90;;;;;;5106997;28;20039;-57
2021/12/02 01:14:33;;;;;;;10.68;1.40;;;3.40;99.90;;;;;;5091538;28;20036;-57
2021/12/02 01:16:59;;;;;;;8.82;1.40;;;3.40;99.90;;;;;;5093363;28;20364;-58
2021/12/02 01:19:25;;;;;;;7.07;1.02;;;3.40;99.90;;;;;;5088642;28;20854;-58
2021/12/02 01:21:52;;;;;;;6.22;1.00;;;3.40;99.90;;;;;;5093105;28;20400;-58
2021/12/02 01:24:20;;;;;;;6.88;1.05;;;3.40;99.90;;;;;;5084913;28;20118;-57
2021/12/02 01:26:52;;;;;;;6.80;1.20;;;3.30;99.90;;;;;;5091308;28;20526;-57
2021/12/02 01:29:20;;;;;;;3.50;0.82;;;3.30;99.90;;;;;;5090232;28;20487;-57
2021/12/02 01:31:49;;;;;;;7.93;1.15;;;3.30;99.90;;;;;;5090561;28;20490;-57
2021/12/02 01:34:21;;;;;;;10.23;1.25;;;3.20;99.90;;;;;;5086487;28;20044;-58
2021/12/02 01:36:49;;;;;;;9.00;1.30;;;3.20;99.90;;;;;;5092825;28;20044;-58
2021/12/02 01:39:16;;;;;;;6.57;1.23;;;3.20;99.90;;;;;;5090352;28;20048;-58
2021/12/02 01:41:57;;;;;;;7.88;1.30;;;3.10;99.90;;;;;;5093153;28;20119;-57
2021/12/02 01:44:25;;;;;;;5.47;0.88;;;3.10;99.90;;;;;;5074620;28;20047;-57
2021/12/02 01:46:53;;;;;;;12.38;1.15;;;3.10;99.90;;;;;;5091342;28;20229;-58
2021/12/02 01:49:22;;;;;;;6.88;0.80;;;3.00;99.90;;;;;;5082006;28;20073;-57
2021/12/02 01:51:50;;;;;;;6.60;1.08;;;3.00;99.90;;;;;;5087479;28;20036;-58
2021/12/02 01:54:21;;;;;;;8.40;1.02;;;3.00;99.90;;;;;;5089694;28;20119;-57
2021/12/02 01:56:48;;;;;;;6.78;1.02;;;3.00;99.90;;;;;;5090175;28;20044;-58
2021/12/02 01:59:23;;;;;;;4.05;0.75;;;3.00;99.90;;;;;;5087049;28;20051;-57
2021/12/02 02:01:56;;;;;;;7.60;0.80;;;3.00;99.90;;;;;;5090225;28;20036;-57
2021/12/02 02:04:23;;;;;;;6.97;0.93;;;3.10;99.90;;;;;;5082753;28;20035;-58
2021/12/02 02:06:57;;;;;;;5.57;0.85;;;3.10;99.90;;;;;;5092021;28;20048;-58
2021/12/02 02:09:30;;;;;;;7.35;0.80;;;3.10;99.90;;;;;;5089590;28;20169;-58
2021/12/02 02:11:56;;;;;;;6.82;0.98;;;3.10;99.90;;;;;;5091565;28;20083;-58
2021/12/02 02:14:25;;;;;;;3.90;0.70;;;3.00;99.90;;;;;;5088243;28;20052;-58
2021/12/02 02:16:52;;;;;;;3.75;0.60;;;3.00;99.90;;;;;;5091868;28;20044;-57
2021/12/02 02:19:18;;;;;;;2.38;0.60;;;2.90;99.90;;;;;;5085343;28;20468;-58
2021/12/02 02:21:44;;;;;;;1.95;0.50;;;2.80;99.90;;;;;;5092165;28;20040;-58
2021/12/02 02:24:17;;;;;;;4.00;0.68;;;2.80;99.90;;;;;;5085683;28;20499;-58
2021/12/02 02:26:44;;;;;;;4.53;0.87;;;2.70;99.90;;;;;;5087694;28;20040;-58
2021/12/02 02:29:13;;;;;;;4.57;0.80;;;2.60;99.90;;;;;;5090400;28;20052;-58
2021/12/02 02:31:41;;;;;;;2.78;0.47;;;2.60;99.90;;;;;;5087955;28;20039;-57
2021/12/02 02:34:08;;;;;;;3.08;0.73;;;2.50;99.90;;;;;;5085631;28;20499;-58
2021/12/02 02:36:37;;;;;;;1.77;0.40;;;2.40;99.90;;;;;;5091231;28;20452;-58
2021/12/02 02:39:04;;;;;;;2.85;0.50;;;2.40;99.90;;;;;;5089674;28;20048;-57
2021/12/02 02:41:34;;;;;;;5.28;0.70;;;2.30;99.90;;;;;;5090507;28;20051;-57
2021/12/02 02:44:01;;;;;;;2.10;0.50;;;2.30;99.90;;;;;;5084609;28;20499;-57
2021/12/02 02:46:28;;;;;;;1.50;0.50;;;2.20;99.90;;;;;;5091907;28;20050;-57
2021/12/02 02:48:55;;;;;;;2.78;0.40;;;2.20;99.90;;;;;;5101244;28;20089;-58
2021/12/02 02:51:22;;;;;;;4.10;0.50;;;2.10;99.90;;;;;;5089691;28;20031;-58
2021/12/02 02:53:55;;;;;;;0.68;0.30;;;2.10;99.90;;;;;;5091017;28;20051;-58
2021/12/02 02:56:24;;;;;;;3.72;0.63;;;2.00;99.90;;;;;;5090934;28;20377;-57
2021/12/02 02:59:12;;;;;;;5.20;0.60;;;2.00;99.90;;;;;;5087323;28;20498;-57
2021/12/02 03:04:29;;;;;;;2.22;0.40;;;1.90;99.90;;;;;;5084755;28;20055;-58
2021/12/02 03:07:01;;;;;;;2.33;0.50;;;1.90;99.90;;;;;;5091266;28;20561;-57
2021/12/02 03:17:20;;;;;;;3.67;0.52;;;1.90;99.90;;;;;;5052861;28;20040;-57
2021/12/02 03:19:47;;;;;;;4.32;0.60;;;1.80;99.90;;;;;;5083054;28;20035;-57
2021/12/02 03:22:16;;;;;;;5.97;0.63;;;1.80;99.90;;;;;;5086799;28;20036;-57
2021/12/02 03:24:42;;;;;;;4.35;0.60;;;1.80;99.90;;;;;;5091182;28;20078;-58
2021/12/02 03:27:08;;;;;;;5.32;0.60;;;1.80;99.90;;;;;;5087171;28;20167;-57
2021/12/02 03:29:34;;;;;;;2.95;0.40;;;1.80;99.90;;;;;;5089312;28;20044;-58
2021/12/02 03:31:59;;;;;;;2.45;0.40;;;1.80;99.90;;;;;;5086389;28;20054;-57
2021/12/02 03:34:25;;;;;;;3.55;0.60;;;1.80;99.90;;;;;;5084823;28;20040;-58
2021/12/02 03:36:52;;;;;;;6.00;0.50;;;1.80;99.90;;;;;;5089178;28;20034;-57
2021/12/02 03:39:19;;;;;;;2.58;0.43;;;1.80;99.90;;;;;;5090971;28;20079;-57
2021/12/02 03:41:45;;;;;;;3.50;0.40;;;1.80;99.90;;;;;;5084662;28;20048;-58
2021/12/02 03:44:12;;;;;;;4.82;0.60;;;1.70;99.90;;;;;;5084810;28;20085;-57
2021/12/02 03:46:39;;;;;;;3.05;0.50;;;1.70;99.90;;;;;;5084013;28;20036;-57
2021/12/02 03:49:05;;;;;;;5.85;0.82;;;1.70;99.90;;;;;;5085121;28;20039;-57
2021/12/02 03:51:31;;;;;;;2.67;0.47;;;1.60;99.90;;;;;;5087490;28;20041;-58
2021/12/02 03:53:57;;;;;;;3.25;0.45;;;1.60;99.90;;;;;;5090739;28;20073;-58
2021/12/02 03:56:24;;;;;;;1.95;0.60;;;1.60;99.90;;;;;;5088016;28;20058;-58
2021/12/02 03:58:51;;;;;;;3.17;0.45;;;1.60;99.90;;;;;;5086510;28;20039;-58
2021/12/02 04:01:18;;;;;;;1.63;0.45;;;1.60;99.90;;;;;;5088595;28;20032;-58
2021/12/02 04:03:44;;;;;;;1.33;0.40;;;1.60;99.90;;;;;;5084830;28;20563;-57
2021/12/02 04:06:10;;;;;;;2.13;0.55;;;1.70;99.90;;;;;;5088341;28;20044;-58
2021/12/02 04:11:32;;;;;;;0.82;0.43;;;1.70;99.90;;;;;;5090399;28;20495;-58
2021/12/02 04:16:39;;;;;;;4.45;0.65;;;1.80;99.90;;;;;;5077387;28;20119;-57
2021/12/02 04:19:07;;;;;;;4.32;0.90;;;1.80;99.90;;;;;;5089881;28;20763;-57
2021/12/02 04:21:33;;;;;;;5.57;0.68;;;1.90;99.90;;;;;;5094157;28;20028;-57
2021/12/02 04:24:00;;;;;;;4.85;0.75;;;2.00;99.90;;;;;;5092051;28;20053;-57
2021/12/02 04:26:25;;;;;;;4.53;0.60;;;2.00;99.90;;;;;;5092593;28;20503;-57
2021/12/02 04:28:51;;;;;;;6.18;0.55;;;2.00;99.90;;;;;;5089839;28;20046;-57
2021/12/02 04:31:17;;;;;;;3.72;0.73;;;2.10;99.90;;;;;;5092507;28;20032;-57
2021/12/02 04:33:43;;;;;;;6.90;0.85;;;2.10;99.90;;;;;;5071151;28;20494;-57
2021/12/02 04:36:09;;;;;;;4.25;0.52;;;2.10;99.90;;;;;;5093671;28;20066;-57
2021/12/02 04:38:34;;;;;;;3.05;0.40;;;2.10;99.90;;;;;;5089877;28;20302;-57
2021/12/02 04:41:00;;;;;;;4.22;0.70;;;2.20;99.90;;;;;;5091887;28;20047;-58
2021/12/02 04:43:26;;;;;;;4.00;0.90;;;2.20;99.90;;;;;;5091660;28;20047;-57
2021/12/02 04:45:52;;;;;;;6.00;0.55;;;2.20;99.90;;;;;;5089981;28;20448;-57
2021/12/02 04:48:19;;;;;;;5.07;0.65;;;2.20;99.90;;;;;;5089253;28;20430;-57
2021/12/02 04:50:46;;;;;;;6.10;0.70;;;2.20;99.90;;;;;;5094242;28;20048;-57
2021/12/02 04:53:12;;;;;;;5.65;0.70;;;2.20;99.90;;;;;;5091646;28;20066;-57
2021/12/02 04:55:39;;;;;;;4.57;0.50;;;2.20;99.90;;;;;;5093879;28;20054;-57
2021/12/02 04:58:05;;;;;;;5.85;0.50;;;2.30;99.90;;;;;;5090639;28;20081;-57
2021/12/02 05:00:31;;;;;;;5.10;0.60;;;2.30;99.90;;;;;;5091851;28;20425;-57
2021/12/02 05:02:58;;;;;;;2.28;0.32;;;2.30;99.90;;;;;;5072377;28;20055;-57
2021/12/02 05:05:24;;;;;;;3.15;0.70;;;2.30;99.90;;;;;;5093021;28;20039;-57
2021/12/02 05:07:53;;;;;;;1.90;0.43;;;2.30;99.90;;;;;;5091388;28;20033;-57
2021/12/02 05:10:20;;;;;;;4.95;0.60;;;2.30;99.90;;;;;;5093691;28;20048;-57
2021/12/02 05:12:45;;;;;;;3.20;0.55;;;2.30;99.90;;;;;;5092051;28;20089;-57
2021/12/02 05:15:11;;;;;;;5.15;0.60;;;2.30;99.90;;;;;;5093468;28;20453;-57
2021/12/02 05:17:37;;;;;;;3.47;0.50;;;2.20;99.90;;;;;;5091384;28;20550;-57
2021/12/02 05:20:05;;;;;;;1.77;0.50;;;2.20;99.90;;;;;;5091373;28;20036;-57
2021/12/02 05:22:31;;;;;;;3.33;0.43;;;2.20;99.90;;;;;;5072452;28;20049;-57
2021/12/02 05:24:56;;;;;;;4.03;0.40;;;2.10;99.90;;;;;;5087644;28;20036;-58
2021/12/02 05:27:22;;;;;;;3.30;0.30;;;2.10;99.90;;;;;;5088406;28;20415;-57
2021/12/02 05:29:48;;;;;;;3.03;0.40;;;2.10;99.90;;;;;;5088801;28;20447;-57
2021/12/02 05:32:13;;;;;;;2.95;0.60;;;2.00;99.90;;;;;;5090373;28;20036;-58
2021/12/02 05:34:39;;;;;;;2.90;0.50;;;2.00;99.90;;;;;;5089081;28;20040;-57
2021/12/02 05:37:05;;;;;;;3.47;0.70;;;2.00;99.90;;;;;;5092845;28;20498;-57
2021/12/02 05:39:30;;;;;;;3.50;0.45;;;2.00;99.90;;;;;;5088423;28;20052;-57
2021/12/02 05:41:56;;;;;;;2.63;0.63;;;1.90;99.90;;;;;;5087474;28;20407;-58
2021/12/02 05:44:23;;;;;;;1.58;0.40;;;1.90;99.90;;;;;;5091365;28;20040;-57
2021/12/02 05:46:50;;;;;;;1.35;0.40;;;1.90;99.90;;;;;;5092550;28;20040;-58
2021/12/02 05:49:16;;;;;;;0.57;0.30;;;2.00;99.90;;;;;;5088129;28;20054;-58
2021/12/02 05:51:42;;;;;;;2.17;0.43;;;1.90;99.90;;;;;;5092421;28;20032;-58
2021/12/02 05:54:09;;;;;;;1.92;0.30;;;2.00;99.90;;;;;;5090575;28;20054;-58
2021/12/02 05:56:34;;;;;;;2.40;0.30;;;2.00;99.90;;;;;;5091022;28;20039;-58
2021/12/02 05:59:00;;;;;;;1.50;0.30;;;2.00;99.90;;;;;;5085226;28;20043;-58
2021/12/02 06:01:26;;;;;;;2.47;0.30;;;1.90;99.90;;;;;;5087675;28;20059;-58
2021/12/02 06:03:51;;;;;;;0.40;0.30;;;1.90;99.90;;;;;;5081892;28;20048;-57
2021/12/02 06:06:19;;;;;;;1.58;0.50;;;2.00;99.90;;;;;;5091820;28;20123;-57
2021/12/02 06:08:44;;;;;;;1.60;0.30;;;1.90;99.90;;;;;;5090076;28;20357;-58
2021/12/02 06:11:11;;;;;;;1.98;0.30;;;1.90;99.90;;;;;;5092646;28;20093;-57
2021/12/02 06:13:37;;;;;;;1.90;0.38;;;1.90;99.90;;;;;;5087685;28;20071;-58
2021/12/02 06:16:03;;;;;;;1.23;0.30;;;1.90;99.90;;;;;;5088574;28;20032;-57
2021/12/02 06:18:28;;;;;;;0.73;0.30;;;1.90;99.90;;;;;;5069583;28;20081;-57
2021/12/02 06:20:54;;;;;;;1.55;0.30;;;1.90;99.90;;;;;;5092466;28;20043;-57
2021/12/02 06:23:21;;;;;;;0.85;0.30;;;1.90;99.90;;;;;;5088898;28;20039;-57
2021/12/02 06:25:48;;;;;;;1.02;0.45;;;1.80;99.90;;;;;;5092007;28;20028;-57
2021/12/02 06:28:15;;;;;;;0.60;0.40;;;1.80;99.90;;;;;;5082382;28;20044;-57
2021/12/02 06:30:42;;;;;;;2.05;0.55;;;1.80;99.90;;;;;;5090239;28;20027;-57
2021/12/02 06:33:08;;;;;;;2.67;0.40;;;1.70;99.90;;;;;;5086907;28;20060;-57
2021/12/02 06:35:34;;;;;;;1.50;0.50;;;1.70;99.90;;;;;;5091488;28;20032;-55
2021/12/02 06:38:00;;;;;;;0.70;0.47;;;1.70;99.90;;;;;;5089740;28;20403;-57
2021/12/02 06:40:26;;;;;;;1.98;0.50;;;1.60;99.90;;;;;;5092070;28;20044;-57
2021/12/02 06:42:51;;;;;;;2.78;0.60;;;1.50;99.90;;;;;;5083103;28;20032;-57
2021/12/02 06:45:19;;;;;;;0.52;0.40;;;1.50;99.90;;;;;;5090310;28;20036;-57
2021/12/02 06:47:46;;;;;;;1.10;0.50;;;1.40;99.90;;;;;;5087019;28;20047;-57
2021/12/02 06:50:18;;;;;;;0.77;0.43;;;1.40;99.90;;;;;;5089935;28;20047;-57
2021/12/02 06:52:49;;;;;;;1.23;0.50;;;1.30;99.90;;;;;;5087053;28;20042;-57
2021/12/02 06:55:16;;;;;;;1.05;0.50;;;1.30;99.90;;;;;;5071587;28;20078;-57
2021/12/02 06:57:42;;;;;;;0.63;0.40;;;1.30;99.90;;;;;;5086556;28;20027;-57
2021/12/02 07:00:12;;;;;;;1.15;0.40;;;1.30;99.90;;;;;;5091406;28;20086;-57
2021/12/02 07:02:38;;;;;;;1.42;0.40;;;1.20;99.90;;;;;;5089167;28;20498;-57
2021/12/02 07:05:10;;;;;;;0.82;0.40;;;1.30;99.90;;;;;;5086336;28;20040;-57
2021/12/02 07:07:36;;;;;;;1.08;0.30;;;1.20;99.90;;;;;;5089531;28;20067;-57
2021/12/02 07:10:22;;;;;;;1.00;0.40;;;1.30;99.90;;;;;;5088263;28;20032;-57
2021/12/02 07:12:52;;;;;;;2.75;0.60;;;1.30;99.90;;;;;;5088472;28;20036;-57
2021/12/02 07:15:25;;;;;;;1.50;0.40;;;1.30;99.90;;;;;;5085050;28;20028;-57
2021/12/02 07:17:55;;;;;;;2.75;0.50;;;1.30;99.90;;;;;;5089386;28;20031;-57
2021/12/02 07:20:22;;;;;;;2.88;0.40;;;1.40;99.90;;;;;;5091413;28;20118;-57
2021/12/02 07:22:47;;;;;;;1.50;0.50;;;1.40;99.90;;;;;;5089307;28;20387;-57
2021/12/02 07:25:13;;;;;;;2.72;0.50;;;1.40;99.90;;;;;;5085635;28;20036;-57
2021/12/02 07:27:39;;;;;;;1.33;0.40;;;1.40;99.90;;;;;;5087511;28;20039;-57
2021/12/02 07:30:06;;;;;;;2.45;0.47;;;1.50;99.90;;;;;;5085826;28;20036;-57
2021/12/02 07:32:40;;;;;;;3.13;0.40;;;1.50;99.90;;;;;;5091159;28;20526;-57
2021/12/02 07:35:11;;;;;;;2.05;0.50;;;1.50;99.90;;;;;;5086056;28;20071;-57
2021/12/02 07:37:41;;;;;;;2.67;0.40;;;1.60;99.90;;;;;;5090502;28;20028;-57
2021/12/02 07:40:07;;;;;;;2.70;0.40;;;1.70;99.90;;;;;;5087610;28;20103;-57
2021/12/02 07:42:33;;;;;;;1.15;0.30;;;1.70;99.90;;;;;;5078917;28;20098;-57
2021/12/02 07:44:59;;;;;;;2.05;0.50;;;1.70;99.90;;;;;;5085324;28;20067;-57
2021/12/02 07:47:26;;;;;;;2.45;0.30;;;1.80;99.90;;;;;;5090515;28;20502;-58
2021/12/02 07:49:52;;;;;;;1.95;0.30;;;1.80;99.90;;;;;;5076408;28;20040;-57
2021/12/02 07:52:21;;;;;;;3.65;0.40;;;1.80;99.90;;;;;;5090184;28;20088;-57
2021/12/02 07:54:50;;;;;;;2.28;0.40;;;2.00;99.90;;;;;;5088736;28;20663;-57
2021/12/02 07:57:16;;;;;;;2.00;0.30;;;1.90;99.90;;;;;;5106236;28;20044;-57
2021/12/02 07:59:42;;;;;;;0.65;0.30;;;1.90;99.90;;;;;;5088871;28;20044;-57
2021/12/02 08:02:14;;;;;;;1.00;0.30;;;1.90;99.90;;;;;;5090567;28;20036;-57
2021/12/02 08:04:40;;;;;;;2.17;0.30;;;2.00;99.90;;;;;;5086142;28;20098;-57
2021/12/02 08:07:06;;;;;;;1.40;0.40;;;1.90;99.90;;;;;;5087146;28;20646;-57
2021/12/02 08:09:32;;;;;;;2.03;0.40;;;1.90;99.90;;;;;;5040397;28;20488;-57
2021/12/02 08:12:00;;;;;;;0.68;0.30;;;1.90;99.90;;;;;;5052424;28;20036;-57
2021/12/02 08:14:27;;;;;;;0.93;0.30;;;1.90;99.90;;;;;;5050911;28;20049;-57
2021/12/02 08:16:52;;;;;;;2.28;0.43;;;1.90;99.90;;;;;;5060304;28;20068;-57
2021/12/02 08:19:19;;;;;;;2.40;0.40;;;1.90;99.90;;;;;;5040438;28;20960;-57
2021/12/02 08:21:45;;;;;;;0.65;0.30;;;1.90;99.90;;;;;;5050914;28;20487;-57
2021/12/02 08:24:11;;;;;;;0.52;0.30;;;1.90;99.90;;;;;;5052206;28;20032;-57
2021/12/02 08:26:37;;;;;;;2.15;0.40;;;1.90;99.90;;;;;;5047987;28;20147;-58
2021/12/02 08:29:04;;;;;;;3.35;0.40;;;1.90;99.90;;;;;;5027350;28;20479;-57
2021/12/02 08:31:30;;;;;;;2.42;0.30;;;1.80;99.90;;;;;;5045279;28;20426;-57
2021/12/02 08:33:56;;;;;;;1.63;0.40;;;1.80;99.90;;;;;;5043986;28;20044;-57
2021/12/02 08:36:25;;;;;;;2.92;0.35;;;1.80;99.90;;;;;;5042800;28;20444;-58
2021/12/02 08:38:51;;;;;;;1.77;0.30;;;1.90;99.90;;;;;;5047986;28;20178;-58
2021/12/02 08:41:19;;;;;;;4.22;0.35;;;1.90;99.90;;;;;;5043896;28;20059;-57
2021/12/02 08:43:48;;;;;;;2.92;0.35;;;1.90;99.90;;;;;;5046727;28;20044;-57
2021/12/02 08:46:16;;;;;;;2.45;0.57;;;1.90;99.90;;;;;;5042819;28;20230;-57
2021/12/02 08:48:41;;;;;;;3.08;0.47;;;1.90;99.90;;;;;;5049263;28;20037;-58
2021/12/02 08:51:07;;;;;;;1.95;0.57;;;1.90;99.90;;;;;;5043012;28;20105;-57
2021/12/02 08:53:33;;;;;;;1.83;0.60;;;1.80;99.90;;;;;;5046286;28;20071;-58
2021/12/02 08:55:58;;;;;;;2.92;0.75;;;1.80;99.90;;;;;;5044730;28;20051;-58
2021/12/02 08:58:24;;;;;;;1.98;0.90;;;1.80;99.90;;;;;;5042609;28;20047;-58
2021/12/02 09:00:50;;;;;;;3.63;1.08;;;1.70;99.90;;;;;;5045878;28;20127;-57
2021/12/02 09:03:16;;;;;;;1.77;0.70;;;1.60;99.90;;;;;;5049212;28;20028;-58
2021/12/02 09:05:43;;;;;;;3.67;1.10;;;2.60;99.90;;;;;;5049701;28;20045;-57
2021/12/02 09:08:09;;;;;;;2.53;1.05;;;1.60;99.90;;;;;;5045634;28;20047;-57
2021/12/02 09:10:36;;;;;;;3.53;1.00;;;1.80;99.90;;;;;;5048973;28;20036;-58
2021/12/02 09:13:09;;;;;;;2.08;0.80;;;1.60;99.90;;;;;;5048011;28;20036;-57
2021/12/02 09:15:38;;;;;;;1.98;0.90;;;1.60;99.90;;;;;;5046956;28;21986;-57
2021/12/02 09:18:04;;;;;;;1.63;0.70;;;1.60;99.90;;;;;;5047965;28;20047;-58
2021/12/02 09:20:30;;;;;;;3.03;0.95;;;1.60;99.90;;;;;;5065614;28;20507;-57
2021/12/02 09:22:55;;;;;;;2.53;1.10;;;2.00;99.90;;;;;;5014784;28;20049;-57
2021/12/02 09:25:22;;;;;;;3.28;0.75;;;1.70;99.90;;;;;;5046806;28;20040;-57
2021/12/02 09:27:48;;;;;;;2.70;1.00;;;1.80;99.90;;;;;;5046986;28;20036;-57
2021/12/02 09:30:15;;;;;;;4.13;0.90;;;2.00;99.90;;;;;;5047365;28;20059;-58
2021/12/02 09:32:40;;;;;;;6.35;1.10;;;2.10;99.90;;;;;;5048725;28;20051;-58
2021/12/02 09:35:08;;;;;;;3.72;0.88;;;2.30;99.90;;;;;;5047332;28;20131;-58
2021/12/02 09:37:33;;;;;;;2.92;0.90;;;2.50;99.90;;;;;;5050681;28;20116;-57
2021/12/02 09:39:59;;;;;;;3.92;1.00;;;2.60;99.90;;;;;;5052007;28;20891;-58
2021/12/02 09:42:26;;;;;;;1.90;0.80;;;3.80;99.90;;;;;;5048238;28;20487;-58
2021/12/02 09:44:55;;;;;;;4.97;0.77;;;2.90;99.90;;;;;;5050070;28;20871;-57
2021/12/02 09:47:22;;;;;;;4.32;0.80;;;3.00;99.90;;;;;;5046561;28;20040;-58
2021/12/02 09:49:48;;;;;;;3.83;0.80;;;3.00;99.90;;;;;;5033811;28;20040;-58
2021/12/02 09:52:16;;;;;;;3.80;0.80;;;3.00;99.90;;;;;;5047294;28;20056;-57
2021/12/02 09:54:47;;;;;;;3.42;0.70;;;3.00;99.90;;;;;;5048928;28;20040;-58
2021/12/02 09:57:16;;;;;;;2.28;0.63;;;3.00;99.90;;;;;;5033972;28;20122;-58
2021/12/02 10:02:10;;;;;;;1.67;0.50;;;3.00;99.90;;;;;;5074996;28;20051;-58
2021/12/02 10:04:42;;;;;;;4.72;0.80;;;3.10;99.90;;;;;;5046117;28;20073;-58
2021/12/02 10:07:19;;;;;;;1.42;0.40;;;3.10;99.90;;;;;;5042522;28;20059;-58
2021/12/02 10:10:11;;;;;;;4.50;0.63;;;3.10;99.90;;;;;;5047612;28;22133;-58
2021/12/02 10:12:47;;;;;;;5.10;0.50;;;3.20;99.90;;;;;;5046275;28;20566;-58
2021/12/02 10:15:15;;;;;;;6.28;0.50;;;3.20;99.90;;;;;;5048624;28;20102;-58
2021/12/02 10:17:50;;;;;;;3.92;0.50;;;3.20;99.90;;;;;;5041992;28;20855;-58
2021/12/02 10:23:18;;;;;;;4.30;0.50;;;3.30;99.90;;;;;;5037601;28;20048;-58
2021/12/02 10:25:47;;;;;;;1.42;0.40;;;3.50;99.90;;;;;;5044992;28;20044;-58
2021/12/02 10:28:15;;;;;;;2.25;0.50;;;3.50;99.90;;;;;;5043092;28;20170;-58
2021/12/02 10:31:16;;;;;;;3.45;0.50;;;3.50;99.90;;;;;;5053368;27;20681;-58
2021/12/02 10:33:49;;;;;;;2.40;0.60;;;3.60;99.90;;;;;;5030591;28;20052;-58
2021/12/02 10:36:45;;;;;;;1.40;0.43;;;3.80;99.90;;;;;;5048215;28;20036;-58
2021/12/02 10:39:22;;;;;;;2.05;0.50;;;4.10;99.90;;;;;;5073873;28;20304;-58
2021/12/02 10:42:05;;;;;;;2.78;0.40;;;4.50;99.90;;;;;;5075619;28;20032;-59
2021/12/02 10:44:35;;;;;;;2.15;0.50;;;4.80;99.90;;;;;;5075769;28;20128;-58
2021/12/02 10:47:08;;;;;;;5.40;0.50;;;5.20;99.90;;;;;;5078494;28;20115;-57
2021/12/02 10:49:46;;;;;;;2.20;0.50;;;5.40;99.90;;;;;;5058383;28;20040;-58
2021/12/02 10:52:16;;;;;;;1.90;0.35;;;5.60;99.90;;;;;;5061066;28;20032;-58
2021/12/02 10:54:50;;;;;;;4.32;0.55;;;5.60;99.90;;;;;;5077545;28;20050;-58
2021/12/02 10:57:19;;;;;;;4.35;0.50;;;5.40;99.90;;;;;;5077925;28;20028;-58
2021/12/02 10:59:53;;;;;;;2.45;0.50;;;5.20;99.90;;;;;;5061765;28;20039;-58
2021/12/02 11:02:35;;;;;;;2.15;0.68;;;5.10;99.90;;;;;;5063087;28;20422;-58
2021/12/02 11:05:19;;;;;;;3.20;0.80;;;5.20;99.90;;;;;;5075644;28;20501;-58
2021/12/02 11:07:53;;;;;;;4.35;0.50;;;5.40;99.90;;;;;;5085813;28;20085;-58
2021/12/02 11:10:18;;;;;;;4.45;0.60;;;5.70;99.90;;;;;;5080898;28;20039;-58
2021/12/02 11:12:50;;;;;;;2.63;0.57;;;5.90;99.90;;;;;;5073044;28;20452;-58
2021/12/02 11:15:17;;;;;;;4.15;0.68;;;6.10;99.90;;;;;;5058211;28;20043;-58
2021/12/02 11:17:57;;;;;;;1.85;0.40;;;6.40;99.90;;;;;;5062500;28;20040;-58
2021/12/02 11:20:31;;;;;;;1.52;0.43;;;5.40;99.90;;;;;;5048173;28;20072;-58
2021/12/02 11:23:09;;;;;;;1.27;0.43;;;5.10;99.90;;;;;;5041340;28;20502;-58
2021/12/02 11:25:56;;;;;;;2.35;0.30;;;4.50;99.90;;;;;;5055703;28;20066;-58
2021/12/02 11:28:25;;;;;;;0.95;0.50;;;4.10;99.90;;;;;;5075537;28;20119;-58
2021/12/02 11:30:51;;;;;;;1.25;0.50;;;3.70;99.90;;;;;;5072351;28;20032;-58
2021/12/02 11:33:19;;;;;;;2.13;0.50;;;3.70;99.90;;;;;;5069607;28;20024;-58
2021/12/02 11:35:47;;;;;;;3.72;0.43;;;3.40;99.90;;;;;;5074822;28;20079;-58
2021/12/02 11:38:19;;;;;;;2.63;0.40;;;3.30;99.90;;;;;;5073806;28;20553;-58
2021/12/02 11:40:48;;;;;;;1.63;0.77;;;3.20;99.90;;;;;;5076816;28;20063;-58
2021/12/02 11:43:17;;;;;;;4.40;0.60;;;3.10;99.90;;;;;;5069148;28;20048;-58
2021/12/02 11:45:49;;;;;;;2.00;0.50;;;3.00;99.90;;;;;;5077333;28;20041;-57
2021/12/02 11:48:22;;;;;;;3.13;0.88;;;2.90;99.90;;;;;;5069419;28;20046;-57
2021/12/02 11:50:51;;;;;;;2.20;0.63;;;2.90;99.90;;;;;;5076162;28;20036;-58
2021/12/02 11:53:21;;;;;;;2.00;0.80;;;2.80;99.90;;;;;;5072934;28;20457;-58
2021/12/02 11:55:52;;;;;;;2.35;0.65;;;2.70;99.90;;;;;;5075223;28;20032;-58
2021/12/02 11:58:18;;;;;;;2.72;0.75;;;2.70;99.90;;;;;;5058755;28;20503;-58
2021/12/02 12:00:46;;;;;;;2.47;0.73;;;2.70;99.90;;;;;;5046279;28;20551;-58
2021/12/02 12:03:15;;;;;;;5.72;1.92;;;2.70;99.90;;;;;;5046756;28;20178;-58
2021/12/02 12:05:56;;;;;;;4.10;1.33;;;2.80;99.90;;;;;;5042802;28;22044;-58
2021/12/02 12:08:38;;;;;;;2.42;0.90;;;2.80;99.90;;;;;;5042499;28;20535;-59
2021/12/02 12:11:21;;;;;;;3.00;0.70;;;3.10;99.90;;;;;;5043636;28;22232;-58
2021/12/02 12:13:49;;;;;;;1.73;0.60;;;3.40;99.90;;;;;;5057835;28;20483;-58
2021/12/02 12:16:25;;;;;;;3.22;0.75;;;3.70;99.90;;;;;;5042925;28;20615;-58
2021/12/02 12:18:52;;;;;;;4.13;1.27;;;3.90;99.90;;;;;;5042107;28;20069;-58
2021/12/02 12:21:18;;;;;;;5.05;0.95;;;4.10;99.90;;;;;;5040653;28;20036;-58
2021/12/02 12:24:00;;;;;;;4.47;0.75;;;4.30;99.90;;;;;;5042235;28;20043;-58
2021/12/02 12:26:32;;;;;;;1.40;0.60;;;4.30;99.90;;;;;;5041274;28;20040;-58
2021/12/02 12:29:04;;;;;;;1.08;0.45;;;4.10;99.90;;;;;;5039691;28;20135;-58
2021/12/02 12:31:52;;;;;;;2.13;0.68;;;4.00;99.90;;;;;;5042098;28;20040;-58
2021/12/02 12:34:36;;;;;;;1.10;0.60;;;3.80;99.90;;;;;;5042321;28;20074;-58
2021/12/02 12:40:18;;;;;;;1.23;0.55;;;3.90;99.90;;;;;;5050678;28;20510;-58
2021/12/02 12:42:46;;;;;;;3.08;0.40;;;4.00;99.90;;;;;;5073334;28;20064;-58
2021/12/02 12:45:42;;;;;;;1.35;0.40;;;4.10;99.90;;;;;;5090061;28;20044;-59
2021/12/02 12:48:17;;;;;;;0.77;0.40;;;4.30;99.90;;;;;;5083768;28;20055;-58
2021/12/02 12:50:45;;;;;;;1.25;0.40;;;4.40;99.90;;;;;;5090531;28;20040;-58
2021/12/02 12:53:19;;;;;;;1.42;0.40;;;4.60;99.90;;;;;;5067880;28;20047;-58
2021/12/02 12:55:52;;;;;;;1.90;0.53;;;4.70;99.90;;;;;;5089832;28;20192;-58
2021/12/02 12:58:26;;;;;;;1.13;0.40;;;4.90;99.90;;;;;;5080159;28;20047;-58
2021/12/02 13:01:01;;;;;;;;;;;5.00;99.90;;;;;;5088663;28;20040;-58
2021/12/02 13:03:44;;;;;;;1.88;0.40;;;5.00;99.90;;;;;;5068885;28;19936;-58
2021/12/02 13:06:20;;;;;;;1.15;0.40;;;4.90;99.90;;;;;;5091182;28;20436;-58
2021/12/02 13:08:50;;;;;;;1.58;0.50;;;4.90;99.90;;;;;;5093728;28;20114;-58
2021/12/02 13:11:20;;;;;;;1.60;0.60;;;4.70;99.90;;;;;;5089945;28;20040;-58
2021/12/02 13:13:47;;;;;;;0.98;0.40;;;4.70;99.90;;;;;;5083267;28;20032;-58
2021/12/02 13:16:15;;;;;;;1.85;0.40;;;4.70;99.90;;;;;;5093106;28;20560;-58
2021/12/02 13:18:43;;;;;;;1.90;0.40;;;4.60;99.90;;;;;;5088863;28;20045;-58
2021/12/02 13:21:21;;;;;;;2.63;0.55;;;4.60;99.90;;;;;;5091017;28;20055;-58
2021/12/02 13:24:05;;;;;;;2.72;0.50;;;4.50;99.90;;;;;;5089013;28;20036;-58
2021/12/02 13:26:38;;;;;;;4.50;0.70;;;4.50;99.90;;;;;;5091948;28;20044;-58
2021/12/02 13:29:09;;;;;;;2.65;0.80;;;4.50;99.90;;;;;;5089066;28;20028;-58
2021/12/02 13:31:36;;;;;;;5.93;0.80;;;4.50;99.90;;;;;;5089128;28;20050;-58
2021/12/02 13:34:06;;;;;;;4.38;0.90;;;4.50;99.90;;;;;;5086957;28;20028;-58